Time;durP1;ratioP1;P1;durP2;ratioP2;P2;SDS_P1;SDS_P2;PMS_P1;PMS_P2;Temp;Humidity;BMP_temperature;BMP_pressure;BME280_temperature;BME280_humidity;BME280_pressure;Samples;Min_cycle;Max_cycle;Signal;HPM_P1;HPM_P2
2022/10/13 00:00:30;;;;;;;31.42;20.50;;;11.50;99.90;;;;;;5012869;28;20219;-72
2022/10/13 00:03:00;;;;;;;26.17;19.88;;;11.50;99.90;;;;;;5019272;28;20193;-71
2022/10/13 00:05:25;;;;;;;23.55;20.85;;;11.50;99.90;;;;;;5007726;28;20176;-72
2022/10/13 00:07:51;;;;;;;29.10;23.40;;;11.60;99.90;;;;;;5021333;28;20215;-71
2022/10/13 00:10:16;;;;;;;32.17;22.55;;;11.70;99.90;;;;;;5010345;28;20543;-72
2022/10/13 00:12:42;;;;;;;29.98;21.85;;;11.70;99.90;;;;;;5013837;28;20188;-72
2022/10/13 00:15:08;;;;;;;32.70;23.42;;;11.70;99.90;;;;;;5013583;28;20702;-73
2022/10/13 00:17:35;;;;;;;31.13;22.15;;;11.70;99.90;;;;;;5010405;28;20185;-73
2022/10/13 00:20:04;;;;;;;31.38;22.50;;;11.70;99.90;;;;;;5011721;28;20185;-71
2022/10/13 00:22:30;;;;;;;32.65;23.25;;;11.70;99.90;;;;;;5011253;28;20184;-73
2022/10/13 00:24:56;;;;;;;32.05;23.50;;;11.70;99.90;;;;;;5010888;28;20196;-71
2022/10/13 00:27:21;;;;;;;39.13;24.92;;;11.70;99.90;;;;;;5008301;28;20213;-71
2022/10/13 00:29:47;;;;;;;34.90;23.98;;;11.60;99.90;;;;;;5011700;28;20173;-71
2022/10/13 00:32:12;;;;;;;33.20;23.13;;;11.50;99.90;;;;;;5006152;28;20247;-71
2022/10/13 00:34:39;;;;;;;30.88;23.67;;;11.50;99.90;;;;;;5010384;28;20205;-72
2022/10/13 00:37:04;;;;;;;28.58;22.25;;;11.60;99.90;;;;;;5011338;28;20213;-72
2022/10/13 00:39:31;;;;;;;31.83;22.00;;;11.60;99.90;;;;;;5009572;28;20267;-72
2022/10/13 00:41:58;;;;;;;33.40;21.85;;;11.60;99.90;;;;;;5013225;28;21863;-72
2022/10/13 00:45:17;;;;;;;28.30;20.50;;;11.60;99.90;;;;;;5014247;28;20691;-72
2022/10/13 00:47:50;;;;;;;23.33;20.50;;;11.60;99.90;;;;;;4995698;28;20237;-73
2022/10/13 00:50:22;;;;;;;28.25;21.38;;;11.70;99.90;;;;;;5016865;28;20252;-73
2022/10/13 00:52:50;;;;;;;30.52;22.13;;;11.60;99.90;;;;;;5022641;28;20184;-73
2022/10/13 00:55:20;;;;;;;27.50;21.20;;;11.60;99.90;;;;;;5015078;28;20177;-73
2022/10/13 00:57:53;;;;;;;28.17;21.83;;;11.60;99.90;;;;;;5011357;28;20213;-72
2022/10/13 01:00:23;;;;;;;27.60;22.65;;;11.70;99.90;;;;;;5010021;28;20185;-73
2022/10/13 01:02:48;;;;;;;29.35;22.38;;;11.70;99.90;;;;;;5019344;28;20181;-71
2022/10/13 01:05:15;;;;;;;29.73;22.73;;;11.60;99.90;;;;;;5016460;28;20177;-73
2022/10/13 01:07:41;;;;;;;30.65;23.15;;;11.60;99.90;;;;;;5019063;28;20489;-73
2022/10/13 01:10:07;;;;;;;28.17;21.60;;;11.60;99.90;;;;;;5012850;28;20552;-73
2022/10/13 01:13:03;;;;;;;27.40;22.10;;;11.50;99.90;;;;;;5015322;28;20185;-73
2022/10/13 01:15:32;;;;;;;27.63;20.25;;;11.50;99.90;;;;;;5006244;28;20197;-74
2022/10/13 01:18:46;;;;;;;26.23;21.30;;;11.50;99.90;;;;;;5013450;28;20259;-73
2022/10/13 01:21:29;;;;;;;33.22;23.08;;;11.40;99.90;;;;;;4985274;28;20192;-73
2022/10/13 01:23:57;;;;;;;27.38;20.45;;;11.20;99.90;;;;;;4989244;28;20205;-74
2022/10/13 01:26:48;;;;;;;29.15;21.83;;;11.20;99.90;;;;;;4995173;28;20205;-73
2022/10/13 01:29:51;;;;;;;23.77;19.73;;;11.10;99.90;;;;;;5007593;28;20260;-73
2022/10/13 01:32:40;;;;;;;24.90;20.10;;;11.00;99.90;;;;;;5009626;28;20196;-72
2022/10/13 01:35:16;;;;;;;29.63;20.90;;;11.00;99.90;;;;;;5015734;28;20288;-73
2022/10/13 01:37:49;;;;;;;27.65;21.48;;;11.00;99.90;;;;;;5010313;28;20208;-73
2022/10/13 01:40:31;;;;;;;29.25;22.63;;;11.00;99.90;;;;;;5006513;28;20212;-73
2022/10/13 01:43:18;;;;;;;27.48;21.65;;;10.90;99.90;;;;;;5016161;28;20233;-73
2022/10/13 01:46:02;;;;;;;25.73;20.02;;;10.90;99.90;;;;;;5017914;28;20185;-71
2022/10/13 01:48:28;;;;;;;29.65;20.55;;;10.90;99.90;;;;;;5011152;28;20678;-70
2022/10/13 01:50:57;;;;;;;32.10;22.42;;;10.80;99.90;;;;;;5016855;28;20555;-72
2022/10/13 01:53:24;;;;;;;29.08;24.10;;;10.80;99.90;;;;;;5013904;28;20290;-72
2022/10/13 01:55:55;;;;;;;34.58;23.35;;;10.80;99.90;;;;;;5015398;28;20182;-72
2022/10/13 01:58:23;;;;;;;28.23;22.33;;;10.80;99.90;;;;;;5019375;28;20180;-72
2022/10/13 02:01:15;;;;;;;28.95;23.80;;;10.80;99.90;;;;;;5017005;28;20224;-73
2022/10/13 02:04:16;;;;;;;28.60;22.92;;;10.70;99.90;;;;;;5020268;28;20579;-72
2022/10/13 02:07:02;;;;;;;31.33;23.35;;;10.70;99.90;;;;;;5019305;28;20244;-72
2022/10/13 02:09:30;;;;;;;28.40;21.10;;;10.80;99.90;;;;;;5018131;28;20243;-72
2022/10/13 02:12:08;;;;;;;33.85;23.48;;;10.90;99.90;;;;;;5014144;28;20613;-73
2022/10/13 02:14:38;;;;;;;30.33;22.73;;;10.90;99.90;;;;;;5017448;28;20201;-72
2022/10/13 02:17:04;;;;;;;32.95;24.08;;;10.90;99.90;;;;;;5015205;28;20280;-72
2022/10/13 02:19:34;;;;;;;33.03;24.33;;;10.90;99.90;;;;;;5016816;28;20268;-72
2022/10/13 02:21:59;;;;;;;34.50;24.27;;;11.00;99.90;;;;;;5012709;28;20193;-72
2022/10/13 02:24:25;;;;;;;34.15;24.13;;;11.10;99.90;;;;;;5013634;28;20293;-71
2022/10/13 02:26:52;;;;;;;33.10;22.50;;;11.10;99.90;;;;;;5015031;28;20690;-71
2022/10/13 02:29:18;;;;;;;31.88;24.05;;;11.20;99.90;;;;;;5018569;28;20196;-71
2022/10/13 02:31:44;;;;;;;37.33;24.02;;;11.20;99.90;;;;;;5014696;28;20174;-73
2022/10/13 02:34:11;;;;;;;34.47;25.58;;;11.30;99.90;;;;;;5013723;28;20197;-71
2022/10/13 02:36:37;;;;;;;40.03;25.60;;;11.30;99.90;;;;;;5013850;28;20191;-73
2022/10/13 02:39:04;;;;;;;38.03;24.85;;;11.20;99.90;;;;;;5018812;28;20577;-72
2022/10/13 02:41:30;;;;;;;38.80;25.83;;;11.30;99.90;;;;;;5019196;28;20193;-72
2022/10/13 02:43:55;;;;;;;37.45;26.38;;;11.30;99.90;;;;;;5014485;28;20705;-71
2022/10/13 02:46:21;;;;;;;38.30;24.33;;;11.40;99.90;;;;;;5018693;28;20203;-71
2022/10/13 02:48:47;;;;;;;42.05;24.60;;;11.30;99.90;;;;;;5018861;28;20178;-72
2022/10/13 02:51:12;;;;;;;38.20;24.40;;;11.40;99.90;;;;;;5014495;28;20185;-72
2022/10/13 02:53:38;;;;;;;39.42;26.08;;;11.40;99.90;;;;;;5012819;28;20675;-72
2022/10/13 02:56:04;;;;;;;38.67;27.10;;;11.30;99.90;;;;;;5016384;28;20709;-72
2022/10/13 02:58:29;;;;;;;36.58;25.17;;;11.20;99.90;;;;;;5017948;28;20666;-72
2022/10/13 03:01:10;;;;;;;38.10;23.80;;;11.20;99.90;;;;;;5014276;28;20240;-72
2022/10/13 03:03:36;;;;;;;41.30;24.77;;;11.30;99.90;;;;;;5009957;28;20298;-72
2022/10/13 03:06:08;;;;;;;37.70;23.95;;;11.50;99.90;;;;;;5017764;28;20574;-72
2022/10/13 03:08:34;;;;;;;31.38;22.35;;;11.50;99.90;;;;;;5005498;28;20553;-72
2022/10/13 03:11:00;;;;;;;38.92;23.23;;;11.50;99.90;;;;;;5011938;28;20181;-72
2022/10/13 03:13:26;;;;;;;35.08;23.10;;;11.60;99.90;;;;;;5013715;28;20251;-71
2022/10/13 03:15:51;;;;;;;33.10;23.20;;;11.60;99.90;;;;;;5018439;28;20239;-72
2022/10/13 03:18:17;;;;;;;32.83;22.65;;;11.60;99.90;;;;;;5015763;28;20212;-73
2022/10/13 03:20:43;;;;;;;31.65;21.85;;;11.70;99.90;;;;;;5016847;28;20594;-73
2022/10/13 03:23:08;;;;;;;30.48;22.48;;;11.70;99.90;;;;;;5015236;28;20331;-74
2022/10/13 03:25:35;;;;;;;33.17;20.92;;;11.70;99.90;;;;;;5010878;28;20181;-74
2022/10/13 03:28:00;;;;;;;32.55;21.67;;;11.70;99.90;;;;;;5013458;28;20251;-73
2022/10/13 03:30:26;;;;;;;27.83;21.17;;;11.60;99.90;;;;;;5015316;28;20644;-72
2022/10/13 03:32:52;;;;;;;28.05;20.73;;;11.70;99.90;;;;;;5016077;28;20195;-71
2022/10/13 03:35:18;;;;;;;28.52;21.42;;;11.70;99.90;;;;;;5011646;28;20207;-72
2022/10/13 03:37:43;;;;;;;29.05;21.38;;;11.60;99.90;;;;;;5011330;28;20189;-72
2022/10/13 03:40:10;;;;;;;27.23;19.80;;;11.70;99.90;;;;;;5020602;28;20279;-72
2022/10/13 03:42:36;;;;;;;23.65;19.42;;;11.70;99.90;;;;;;5012993;28;20686;-72
2022/10/13 03:45:03;;;;;;;28.85;18.70;;;11.70;99.90;;;;;;5013405;28;20204;-72
2022/10/13 03:47:29;;;;;;;29.33;21.00;;;11.70;99.90;;;;;;5013138;28;20208;-73
2022/10/13 03:49:55;;;;;;;24.05;18.35;;;11.80;99.90;;;;;;5011963;28;20177;-73
2022/10/13 03:52:21;;;;;;;27.67;18.42;;;11.80;99.90;;;;;;5016626;28;20719;-71
2022/10/13 03:54:47;;;;;;;21.77;18.05;;;11.90;99.90;;;;;;5011876;28;20854;-71
2022/10/13 03:57:13;;;;;;;24.30;18.85;;;11.90;99.90;;;;;;5012952;28;20193;-73
2022/10/13 03:59:39;;;;;;;22.48;18.70;;;11.90;99.90;;;;;;5013294;28;20193;-73
2022/10/13 04:02:06;;;;;;;24.85;19.25;;;11.80;99.90;;;;;;5010731;28;20185;-73
2022/10/13 04:04:31;;;;;;;26.67;19.30;;;11.80;99.90;;;;;;5009950;28;20243;-73
2022/10/13 04:06:57;;;;;;;21.75;18.10;;;11.70;99.90;;;;;;5006714;28;20648;-73
2022/10/13 04:09:23;;;;;;;23.55;18.58;;;11.70;99.90;;;;;;5008226;28;20177;-73
2022/10/13 04:11:50;;;;;;;21.52;19.17;;;11.60;99.90;;;;;;5008264;28;20685;-73
2022/10/13 04:14:16;;;;;;;23.17;19.95;;;11.70;99.90;;;;;;5020633;28;20243;-71
2022/10/13 04:16:41;;;;;;;22.13;18.60;;;11.60;99.90;;;;;;5018563;28;20664;-71
2022/10/13 04:19:10;;;;;;;23.42;17.80;;;11.70;99.90;;;;;;5017039;28;20243;-73
2022/10/13 04:21:35;;;;;;;25.02;18.42;;;11.70;99.90;;;;;;5015996;28;20707;-73
2022/10/13 04:24:03;;;;;;;24.52;18.98;;;11.70;99.90;;;;;;5021980;28;20288;-71
2022/10/13 04:26:31;;;;;;;19.73;16.98;;;11.70;99.90;;;;;;5020986;28;20219;-73
2022/10/13 04:28:57;;;;;;;23.10;18.15;;;11.70;99.90;;;;;;5024401;28;20220;-72
2022/10/13 04:31:24;;;;;;;21.13;18.25;;;11.80;99.90;;;;;;5023248;28;20223;-71
2022/10/13 04:33:50;;;;;;;23.95;19.27;;;11.80;99.90;;;;;;5021933;28;20204;-71
2022/10/13 04:36:17;;;;;;;23.48;19.38;;;11.80;99.90;;;;;;5018909;28;20176;-71
2022/10/13 04:38:43;;;;;;;23.27;18.80;;;11.70;99.90;;;;;;5025873;28;20184;-73
2022/10/13 04:41:10;;;;;;;22.33;18.80;;;11.80;99.90;;;;;;5020142;28;20234;-73
2022/10/13 04:43:36;;;;;;;28.67;18.35;;;11.80;99.90;;;;;;5028104;28;20624;-73
2022/10/13 04:46:07;;;;;;;24.67;19.15;;;11.90;99.90;;;;;;5026891;28;20223;-73
2022/10/13 04:48:33;;;;;;;21.15;18.35;;;12.00;99.90;;;;;;5017031;28;20186;-73
2022/10/13 04:51:08;;;;;;;25.00;20.10;;;12.00;99.90;;;;;;5017060;28;20628;-73
2022/10/13 04:53:35;;;;;;;22.85;20.00;;;11.90;99.90;;;;;;5018211;28;20231;-71
2022/10/13 04:56:07;;;;;;;24.35;21.27;;;11.90;99.90;;;;;;5018195;28;20185;-72
2022/10/13 04:58:33;;;;;;;27.10;19.88;;;11.90;99.90;;;;;;5015953;28;20210;-71
2022/10/13 05:00:59;;;;;;;24.90;19.27;;;11.90;99.90;;;;;;5015456;28;20568;-75
2022/10/13 05:03:24;;;;;;;25.33;20.58;;;12.00;99.90;;;;;;5023186;28;20222;-73
2022/10/13 05:05:51;;;;;;;25.75;20.45;;;12.00;99.90;;;;;;5021518;28;20539;-73
2022/10/13 05:08:17;;;;;;;25.63;21.27;;;11.90;99.90;;;;;;5012658;28;20181;-74
2022/10/13 05:10:51;;;;;;;22.42;19.92;;;11.90;99.90;;;;;;5015719;28;20193;-73
2022/10/13 05:13:17;;;;;;;26.05;20.75;;;11.90;99.90;;;;;;5012393;28;20197;-73
2022/10/13 05:15:42;;;;;;;24.27;19.80;;;11.90;99.90;;;;;;5019130;28;20263;-73
2022/10/13 05:18:08;;;;;;;22.77;19.38;;;12.00;99.90;;;;;;5007072;28;20173;-74
2022/10/13 05:20:33;;;;;;;27.35;21.02;;;12.10;99.90;;;;;;5015255;28;20751;-73
2022/10/13 05:22:59;;;;;;;26.65;20.52;;;12.00;99.90;;;;;;5020268;28;20192;-73
2022/10/13 05:25:24;;;;;;;24.88;19.65;;;12.00;99.90;;;;;;5019380;28;20196;-72
2022/10/13 05:27:50;;;;;;;22.00;19.08;;;12.00;99.90;;;;;;5011331;28;20227;-73
2022/10/13 05:30:16;;;;;;;24.77;19.40;;;12.10;99.90;;;;;;5012507;28;20597;-73
2022/10/13 05:32:41;;;;;;;22.23;19.38;;;12.10;99.90;;;;;;5017228;28;20169;-74
2022/10/13 05:35:07;;;;;;;26.02;21.40;;;12.10;99.90;;;;;;5012133;28;20205;-72
2022/10/13 05:37:33;;;;;;;26.95;20.67;;;12.00;99.90;;;;;;5018798;28;20198;-73
2022/10/13 05:39:58;;;;;;;20.67;18.58;;;12.10;99.90;;;;;;5017677;28;20189;-74
2022/10/13 05:42:24;;;;;;;22.38;19.90;;;12.10;99.90;;;;;;5015554;28;20232;-73
2022/10/13 05:44:50;;;;;;;26.33;20.27;;;12.10;99.90;;;;;;5011064;28;20215;-73
2022/10/13 05:47:15;;;;;;;23.98;21.33;;;12.10;99.90;;;;;;5020956;28;20212;-75
2022/10/13 05:49:41;;;;;;;23.20;19.10;;;12.10;99.90;;;;;;5017706;28;20233;-75
2022/10/13 05:52:10;;;;;;;25.25;20.63;;;12.10;99.90;;;;;;5015165;28;20196;-72
2022/10/13 05:54:43;;;;;;;22.05;18.77;;;12.20;99.90;;;;;;5013929;28;20221;-73
2022/10/13 05:57:26;;;;;;;22.85;20.52;;;12.20;99.90;;;;;;5015967;28;20235;-73
2022/10/13 06:00:06;;;;;;;21.63;19.02;;;12.20;99.90;;;;;;5015247;28;20523;-76
2022/10/13 06:02:39;;;;;;;24.55;19.45;;;12.30;99.90;;;;;;5015126;28;20220;-77
2022/10/13 06:05:07;;;;;;;22.30;19.77;;;12.40;99.90;;;;;;5019377;28;20209;-82
2022/10/13 06:07:33;;;;;;;26.42;20.10;;;12.40;99.90;;;;;;5016919;28;20205;-80
2022/10/13 06:10:00;;;;;;;24.70;20.02;;;12.40;99.90;;;;;;5013819;28;20177;-81
2022/10/13 06:12:26;;;;;;;21.67;19.20;;;12.40;99.90;;;;;;5019014;28;20212;-82
2022/10/13 06:14:51;;;;;;;22.77;18.50;;;12.40;99.90;;;;;;5016372;28;20205;-77
2022/10/13 06:17:17;;;;;;;20.20;18.05;;;12.50;99.90;;;;;;5013815;28;20181;-78
2022/10/13 06:19:44;;;;;;;23.52;18.88;;;12.50;99.90;;;;;;5023496;28;20622;-78
2022/10/13 06:22:09;;;;;;;20.95;17.48;;;12.60;99.90;;;;;;5017933;28;20188;-78
2022/10/13 06:24:35;;;;;;;19.80;17.85;;;12.70;99.90;;;;;;5022386;28;20589;-78
2022/10/13 06:27:01;;;;;;;19.90;17.90;;;12.90;99.90;;;;;;5025858;28;20236;-78
2022/10/13 06:29:26;;;;;;;20.70;18.48;;;13.00;99.90;;;;;;5017780;28;20191;-79
2022/10/13 06:31:52;;;;;;;19.50;17.50;;;13.10;99.90;;;;;;5016081;28;20182;-79
2022/10/13 06:34:18;;;;;;;20.40;17.15;;;13.10;99.90;;;;;;5013379;28;20224;-79
2022/10/13 06:36:43;;;;;;;19.65;17.27;;;13.10;99.90;;;;;;5015618;28;20223;-75
2022/10/13 06:39:09;;;;;;;18.30;16.40;;;13.10;99.90;;;;;;5017932;28;20192;-74
2022/10/13 06:41:34;;;;;;;18.30;16.40;;;13.10;99.90;;;;;;5013252;28;20192;-78
2022/10/13 06:44:00;;;;;;;19.60;17.70;;;13.20;99.90;;;;;;5013029;28;20201;-77
2022/10/13 06:46:29;;;;;;;19.73;17.50;;;13.20;99.90;;;;;;5014301;28;20209;-82
2022/10/13 06:48:55;;;;;;;19.65;17.67;;;13.20;99.90;;;;;;5022500;28;20177;-75
2022/10/13 06:51:20;;;;;;;20.90;18.45;;;13.10;99.90;;;;;;5010024;28;20678;-77
2022/10/13 06:53:46;;;;;;;21.05;17.83;;;13.00;99.90;;;;;;5016349;28;20201;-76
2022/10/13 06:56:12;;;;;;;22.27;17.73;;;13.00;99.90;;;;;;5023340;28;20196;-81
2022/10/13 06:58:37;;;;;;;21.77;17.92;;;13.00;99.90;;;;;;5023142;28;20275;-82
2022/10/13 07:01:04;;;;;;;19.73;17.38;;;13.10;99.90;;;;;;5016879;28;20260;-77
2022/10/13 07:03:30;;;;;;;26.70;18.75;;;13.10;99.90;;;;;;5011531;28;20285;-75
2022/10/13 07:06:03;;;;;;;19.90;17.85;;;13.30;99.90;;;;;;5016994;28;20185;-76
2022/10/13 07:08:30;;;;;;;20.40;18.27;;;13.40;99.90;;;;;;5016795;28;20186;-81
2022/10/13 07:10:56;;;;;;;20.73;18.65;;;13.40;99.90;;;;;;5018590;28;20189;-80
2022/10/13 07:13:22;;;;;;;21.45;19.30;;;13.40;99.90;;;;;;5012429;28;20202;-76
2022/10/13 07:15:47;;;;;;;23.10;19.58;;;13.60;99.90;;;;;;5016473;28;20529;-77
2022/10/13 07:18:13;;;;;;;28.77;20.33;;;13.80;99.90;;;;;;5019774;28;20181;-82
2022/10/13 07:20:42;;;;;;;23.08;20.42;;;13.90;99.90;;;;;;5016986;28;20181;-82
2022/10/13 07:23:07;;;;;;;22.40;19.73;;;14.10;99.90;;;;;;5025638;28;20185;-77
2022/10/13 07:25:33;;;;;;;20.75;18.67;;;14.10;99.90;;;;;;5020277;28;20193;-79
2022/10/13 07:27:59;;;;;;;19.83;17.80;;;14.20;99.90;;;;;;5022899;28;20221;-81
2022/10/13 07:30:25;;;;;;;20.40;18.30;;;14.30;99.90;;;;;;5025950;28;20671;-82
2022/10/13 07:32:51;;;;;;;20.73;18.38;;;14.40;99.90;;;;;;5024555;28;20203;-81
2022/10/13 07:35:17;;;;;;;21.88;18.42;;;14.50;99.90;;;;;;5026611;28;20632;-77
2022/10/13 07:37:42;;;;;;;24.23;19.70;;;14.60;99.90;;;;;;5022547;28;20181;-77
2022/10/13 07:40:08;;;;;;;18.85;16.85;;;14.60;99.90;;;;;;5016650;28;20245;-78
2022/10/13 07:42:34;;;;;;;21.27;18.85;;;14.70;99.90;;;;;;5016858;28;20224;-77
2022/10/13 07:45:00;;;;;;;21.42;18.65;;;14.80;99.90;;;;;;5010725;28;21040;-77
2022/10/13 07:47:25;;;;;;;19.92;17.52;;;14.80;99.90;;;;;;5012778;28;20216;-77
2022/10/13 07:49:53;;;;;;;26.30;19.48;;;14.90;99.90;;;;;;5013093;28;20185;-77
2022/10/13 07:52:19;;;;;;;24.90;19.63;;;14.90;99.90;;;;;;5015764;28;20593;-77
2022/10/13 07:54:44;;;;;;;21.80;19.35;;;15.00;99.90;;;;;;5017996;28;20202;-74
2022/10/13 07:57:10;;;;;;;23.40;18.20;;;15.00;99.90;;;;;;5019282;28;20284;-74
2022/10/13 07:59:36;;;;;;;20.00;17.98;;;15.00;99.90;;;;;;5012007;28;20197;-74
2022/10/13 08:02:01;;;;;;;17.80;16.08;;;15.20;99.90;;;;;;5015394;28;20196;-74
2022/10/13 08:04:34;;;;;;;19.65;17.67;;;15.30;99.90;;;;;;5016107;28;20566;-74
2022/10/13 08:07:00;;;;;;;19.92;17.77;;;15.40;99.90;;;;;;5012848;28;20213;-76
2022/10/13 08:09:26;;;;;;;20.02;17.80;;;15.40;99.90;;;;;;5014487;28;20185;-76
2022/10/13 08:11:52;;;;;;;20.33;18.15;;;15.40;99.90;;;;;;5013058;28;20267;-76
2022/10/13 08:14:18;;;;;;;21.33;18.00;;;15.50;99.90;;;;;;5015749;28;20201;-76
2022/10/13 08:16:44;;;;;;;21.48;17.17;;;15.40;99.90;;;;;;5012411;28;20555;-75
2022/10/13 08:19:14;;;;;;;19.65;17.52;;;15.40;99.90;;;;;;5009392;28;20189;-76
2022/10/13 08:21:40;;;;;;;20.67;18.50;;;15.50;99.90;;;;;;5020171;28;20185;-75
2022/10/13 08:24:12;;;;;;;21.67;19.48;;;15.70;99.90;;;;;;5010296;28;20225;-76
2022/10/13 08:26:38;;;;;;;21.38;19.10;;;15.80;99.90;;;;;;5012443;28;20219;-75
2022/10/13 08:29:03;;;;;;;19.73;17.73;;;16.00;99.90;;;;;;5013793;28;20174;-77
2022/10/13 08:31:29;;;;;;;21.10;18.70;;;16.40;99.90;;;;;;5014574;28;20211;-77
2022/10/13 08:33:55;;;;;;;19.75;17.65;;;16.60;99.90;;;;;;5019486;28;20696;-78
2022/10/13 08:36:20;;;;;;;19.85;17.73;;;16.90;99.90;;;;;;5006296;28;20204;-78
2022/10/13 08:38:46;;;;;;;25.30;19.05;;;16.90;99.90;;;;;;5011869;28;20273;-78
2022/10/13 08:41:22;;;;;;;23.50;19.48;;;16.80;99.90;;;;;;5010093;28;20193;-76
2022/10/13 08:43:51;;;;;;;19.45;17.45;;;16.50;99.90;;;;;;5011145;28;20236;-77
2022/10/13 08:46:27;;;;;;;23.55;19.25;;;16.40;99.90;;;;;;5021584;28;20641;-77
2022/10/13 08:48:54;;;;;;;22.85;19.23;;;16.40;99.90;;;;;;5019038;28;20172;-77
2022/10/13 08:51:20;;;;;;;21.52;19.40;;;16.30;99.90;;;;;;5010269;28;20177;-77
2022/10/13 08:53:47;;;;;;;23.50;18.88;;;16.40;99.90;;;;;;5012175;28;20339;-78
2022/10/13 08:56:30;;;;;;;23.63;20.35;;;16.40;99.90;;;;;;5010130;28;20193;-82
2022/10/13 08:58:56;;;;;;;22.17;19.50;;;16.40;99.90;;;;;;5010145;28;20181;-77
2022/10/13 09:01:27;;;;;;;21.83;19.55;;;16.10;99.90;;;;;;5010372;28;20178;-77
2022/10/13 09:04:30;;;;;;;21.67;19.42;;;16.00;99.90;;;;;;5017332;28;20238;-77
2022/10/13 09:07:08;;;;;;;21.88;19.48;;;16.00;99.90;;;;;;5021821;28;20671;-78
2022/10/13 09:09:34;;;;;;;22.08;19.45;;;16.10;99.90;;;;;;5023067;28;20176;-80
2022/10/13 09:12:00;;;;;;;22.75;19.90;;;16.10;99.90;;;;;;5016494;28;20178;-80
2022/10/13 09:14:29;;;;;;;20.23;18.13;;;16.10;99.90;;;;;;5019633;28;20208;-80
2022/10/13 09:17:04;;;;;;;21.27;18.55;;;16.20;99.90;;;;;;5021964;28;20188;-80
2022/10/13 09:19:35;;;;;;;22.83;19.23;;;16.30;99.90;;;;;;5016750;28;20189;-80
2022/10/13 09:22:26;;;;;;;22.50;19.00;;;16.30;99.90;;;;;;5020358;28;20639;-80
2022/10/13 09:25:08;;;;;;;21.88;19.63;;;16.40;99.90;;;;;;5011686;28;20201;-80
2022/10/13 09:27:56;;;;;;;21.33;18.05;;;16.50;99.90;;;;;;5015593;28;20205;-80
2022/10/13 09:30:33;;;;;;;20.65;18.13;;;16.70;99.90;;;;;;5018661;28;20165;-80
2022/10/13 09:33:08;;;;;;;24.63;19.67;;;16.80;99.90;;;;;;5019257;28;20191;-82
2022/10/13 09:35:42;;;;;;;20.30;17.50;;;16.90;99.90;;;;;;5021937;28;20239;-75
2022/10/13 09:38:15;;;;;;;20.13;17.95;;;16.90;99.90;;;;;;5012795;28;20191;-78
2022/10/13 09:40:42;;;;;;;21.23;18.73;;;17.10;99.90;;;;;;5009491;28;20235;-77
2022/10/13 09:43:34;;;;;;;21.45;18.23;;;17.00;99.90;;;;;;5013415;28;20256;-77
2022/10/13 09:46:01;;;;;;;21.02;18.80;;;17.20;99.90;;;;;;5011586;28;20185;-78
2022/10/13 09:48:35;;;;;;;22.27;19.17;;;17.20;99.90;;;;;;5011182;28;20205;-77
2022/10/13 09:51:01;;;;;;;21.55;19.38;;;17.10;99.90;;;;;;5012912;28;20177;-78
2022/10/13 09:53:30;;;;;;;25.20;19.33;;;16.90;99.90;;;;;;5013270;28;20205;-77
2022/10/13 09:56:25;;;;;;;20.75;18.63;;;16.80;99.90;;;;;;5015365;28;20177;-77
2022/10/13 09:59:06;;;;;;;21.02;18.33;;;16.80;99.90;;;;;;5011529;28;20267;-78
2022/10/13 10:01:36;;;;;;;20.00;17.92;;;16.80;99.90;;;;;;5014325;28;20208;-77
2022/10/13 10:04:10;;;;;;;25.50;19.25;;;16.80;99.90;;;;;;5011171;28;20684;-78
2022/10/13 10:06:36;;;;;;;24.52;21.08;;;16.80;99.90;;;;;;5012650;28;20232;-77
2022/10/13 10:09:35;;;;;;;22.42;20.08;;;16.80;99.90;;;;;;5016734;28;20632;-78
2022/10/13 10:12:03;;;;;;;19.38;17.25;;;16.70;99.90;;;;;;5018697;28;20644;-77
2022/10/13 10:14:32;;;;;;;25.27;19.58;;;16.80;99.90;;;;;;5021757;28;20196;-77
2022/10/13 10:17:06;;;;;;;20.13;18.13;;;16.90;99.90;;;;;;5019603;28;20185;-77
2022/10/13 10:19:46;;;;;;;21.33;18.48;;;16.90;99.90;;;;;;5018443;28;20722;-77
2022/10/13 10:22:49;;;;;;;21.15;18.85;;;16.80;99.90;;;;;;5016215;28;20180;-78
2022/10/13 10:25:17;;;;;;;21.25;18.77;;;16.80;99.90;;;;;;5014111;28;20187;-77
2022/10/13 10:28:22;;;;;;;20.50;18.45;;;16.90;99.90;;;;;;5010235;28;20340;-76
2022/10/13 10:31:16;;;;;;;22.23;19.75;;;16.80;99.90;;;;;;5007845;28;20189;-77
2022/10/13 10:33:41;;;;;;;22.58;18.73;;;16.90;99.90;;;;;;5011321;28;20205;-78
2022/10/13 10:36:20;;;;;;;21.10;18.48;;;17.00;99.90;;;;;;5007127;28;20562;-77
2022/10/13 10:38:53;;;;;;;21.90;19.63;;;17.20;99.90;;;;;;5011430;28;20177;-77
2022/10/13 10:41:40;;;;;;;21.63;18.75;;;17.40;99.90;;;;;;5009926;28;20201;-77
2022/10/13 10:44:16;;;;;;;21.88;19.55;;;17.60;99.90;;;;;;5013832;28;20740;-78
2022/10/13 10:46:46;;;;;;;19.83;17.65;;;17.60;99.90;;;;;;5012783;28;20255;-77
2022/10/13 10:49:48;;;;;;;18.38;16.48;;;17.60;99.90;;;;;;5010975;28;20182;-78
2022/10/13 10:52:28;;;;;;;20.05;16.83;;;17.60;99.90;;;;;;4980023;28;20208;-77
2022/10/13 10:55:12;;;;;;;22.02;17.65;;;17.70;99.90;;;;;;5012754;28;20217;-78
2022/10/13 10:58:13;;;;;;;22.02;17.35;;;17.60;99.90;;;;;;5011256;28;20197;-77
2022/10/13 11:00:57;;;;;;;23.60;16.65;;;17.40;99.90;;;;;;5008973;28;20201;-78
2022/10/13 11:03:53;;;;;;;22.02;18.00;;;17.30;99.90;;;;;;5013666;28;20640;-78
2022/10/13 11:06:30;;;;;;;19.25;17.10;;;17.20;99.90;;;;;;5013370;28;20176;-77
2022/10/13 11:08:57;;;;;;;20.60;17.55;;;17.10;99.90;;;;;;5007915;28;20182;-78
2022/10/13 11:11:29;;;;;;;19.50;17.08;;;17.10;99.90;;;;;;5005589;28;20521;-78
2022/10/13 11:14:27;;;;;;;20.60;17.60;;;17.20;99.90;;;;;;5009851;28;20208;-78
2022/10/13 11:17:09;;;;;;;21.60;18.10;;;17.00;99.90;;;;;;5007720;28;20191;-78
2022/10/13 11:19:39;;;;;;;18.92;17.10;;;17.00;99.90;;;;;;5011814;28;20715;-78
2022/10/13 11:22:05;;;;;;;20.77;18.58;;;16.90;99.90;;;;;;5012642;28;20181;-78
2022/10/13 11:24:34;;;;;;;20.80;17.55;;;16.90;99.90;;;;;;5007525;28;20699;-78
2022/10/13 11:27:11;;;;;;;17.33;15.43;;;16.90;99.90;;;;;;5006813;28;20209;-77
2022/10/13 11:29:57;;;;;;;20.42;17.27;;;17.20;99.90;;;;;;5015659;28;20212;-79
2022/10/13 11:32:40;;;;;;;19.75;17.63;;;17.50;99.90;;;;;;5014903;28;20585;-79
2022/10/13 11:35:05;;;;;;;21.65;16.73;;;17.60;99.90;;;;;;5015242;28;20209;-78
2022/10/13 11:37:52;;;;;;;18.13;15.90;;;17.80;99.90;;;;;;5013283;28;20188;-78
2022/10/13 11:40:43;;;;;;;22.13;17.88;;;17.90;99.90;;;;;;5011928;28;20236;-78
2022/10/13 11:43:30;;;;;;;19.00;17.00;;;17.90;99.90;;;;;;5008946;28;20564;-79
2022/10/13 11:46:24;;;;;;;22.35;16.75;;;17.80;99.90;;;;;;5009105;28;20189;-79
2022/10/13 11:48:52;;;;;;;17.08;14.50;;;17.70;99.90;;;;;;5011965;28;20699;-77
2022/10/13 11:51:36;;;;;;;19.10;15.95;;;17.70;99.90;;;;;;5013567;28;20188;-79
2022/10/13 11:54:11;;;;;;;17.38;15.55;;;17.70;99.90;;;;;;5000044;28;20201;-79
2022/10/13 11:56:49;;;;;;;20.23;14.98;;;17.70;99.90;;;;;;5010232;28;20683;-78
2022/10/13 11:59:36;;;;;;;19.35;14.82;;;17.70;99.90;;;;;;5013818;28;20185;-78
2022/10/13 12:02:12;;;;;;;16.83;15.15;;;17.80;99.90;;;;;;5006665;28;20189;-79
2022/10/13 12:04:40;;;;;;;17.50;15.65;;;17.80;99.90;;;;;;5015773;28;20696;-78
2022/10/13 12:07:08;;;;;;;18.10;16.05;;;18.00;99.90;;;;;;5020341;28;20280;-77
2022/10/13 12:09:47;;;;;;;17.70;15.20;;;18.20;99.90;;;;;;5021444;28;20293;-77
2022/10/13 12:12:16;;;;;;;17.08;14.25;;;18.60;99.90;;;;;;5011713;28;20184;-77
2022/10/13 12:14:46;;;;;;;16.55;14.82;;;19.20;99.90;;;;;;5019312;28;20660;-76
2022/10/13 12:17:29;;;;;;;16.00;14.35;;;19.80;99.90;;;;;;5009151;28;20210;-76
2022/10/13 12:19:58;;;;;;;15.60;13.95;;;20.30;99.90;;;;;;5017354;28;20259;-77
2022/10/13 12:22:23;;;;;;;18.38;14.10;;;20.80;99.90;;;;;;5015753;28;20181;-77
2022/10/13 12:25:00;;;;;;;15.75;13.50;;;21.10;99.90;;;;;;5019266;28;20210;-77
2022/10/13 12:27:27;;;;;;;14.40;12.90;;;21.40;99.90;;;;;;5010188;28;20734;-77
2022/10/13 12:29:53;;;;;;;14.90;13.32;;;21.50;99.90;;;;;;5007854;28;20188;-77
2022/10/13 12:32:29;;;;;;;18.42;12.73;;;21.20;99.90;;;;;;5008182;28;20173;-77
2022/10/13 12:34:54;;;;;;;12.77;11.38;;;20.60;99.90;;;;;;5010755;28;20226;-77
2022/10/13 12:37:32;;;;;;;12.05;10.82;;;20.10;99.90;;;;;;5011800;28;20557;-78
2022/10/13 12:39:59;;;;;;;13.80;11.38;;;19.80;99.90;;;;;;5016686;28;20185;-76
2022/10/13 12:42:31;;;;;;;12.45;10.75;;;19.40;99.90;;;;;;5020196;28;20300;-77
2022/10/13 12:44:58;;;;;;;14.13;11.32;;;19.30;99.90;;;;;;5016926;28;20219;-77
2022/10/13 12:47:39;;;;;;;17.45;12.18;;;19.20;99.90;;;;;;5014113;28;20748;-76